Time;durP1;ratioP1;P1;durP2;ratioP2;P2;SDS_P1;SDS_P2;PMS_P1;PMS_P2;Temp;Humidity;BMP_temperature;BMP_pressure;BME280_temperature;BME280_humidity;BME280_pressure;Samples;Min_cycle;Max_cycle;Signal;HPM_P1;HPM_P2
2021/04/05 00:01:59;;;;;;;0.97;0.97;;;;;;;4.48;89.47;100419.31;5009441;28;20057;-78
2021/04/05 00:04:26;;;;;;;9.00;2.63;;;;;;;4.46;89.73;100411.56;5014119;28;20441;-74
2021/04/05 00:06:51;;;;;;;2.17;1.00;;;;;;;3.96;90.57;100346.38;5028394;28;20049;-74
2021/04/05 00:09:17;;;;;;;3.63;1.43;;;;;;;4.37;89.65;100405.88;5014052;28;20138;-75
2021/04/05 00:11:42;;;;;;;0.85;0.68;;;;;;;4.37;90.21;100411.91;5010818;28;21181;-74
2021/04/05 00:14:08;;;;;;;0.60;0.60;;;;;;;4.44;90.75;100394.38;5010816;28;20128;-73
2021/04/05 00:16:33;;;;;;;2.97;1.40;;;;;;;4.46;90.51;100401.34;5014880;28;20026;-75
2021/04/05 00:18:59;;;;;;;10.47;3.33;;;;;;;4.31;91.38;100385.06;5047495;28;20041;-75
2021/04/05 00:21:27;;;;;;;2.20;1.40;;;;;;;4.20;91.23;100379.31;5016857;28;20029;-74
2021/04/05 00:23:52;;;;;;;16.13;5.97;;;;;;;4.34;91.54;100398.06;5013242;28;20026;-71
2021/04/05 00:26:19;;;;;;;0.70;0.50;;;;;;;4.07;92.87;100374.25;5015630;28;20553;-75
2021/04/05 00:28:45;;;;;;;0.67;0.60;;;;;;;4.23;93.09;100386.28;5016875;28;20022;-75
2021/04/05 00:31:11;;;;;;;0.77;0.60;;;;;;;4.12;93.44;100393.28;5014624;28;20026;-76
2021/04/05 00:33:37;;;;;;;0.93;0.73;;;;;;;4.13;93.27;100393.38;5015216;28;20036;-76
2021/04/05 00:36:03;;;;;;;0.63;0.63;;;;;;;4.12;93.33;100395.84;5013931;28;20018;-74
2021/04/05 00:38:28;;;;;;;0.37;0.37;;;;;;;3.68;93.58;100319.13;5017907;28;20029;-74
2021/04/05 00:41:05;;;;;;;0.50;0.50;;;;;;;4.18;93.09;100389.44;5016028;28;20053;-77
2021/04/05 00:43:32;;;;;;;1.50;0.50;;;;;;;4.13;93.31;100402.72;5016036;28;20440;-73
2021/04/05 00:45:57;;;;;;;0.70;0.70;;;;;;;3.98;94.03;100408.63;5014448;28;20022;-73
2021/04/05 00:48:24;;;;;;;1.70;0.70;;;;;;;3.86;95.10;100395.09;5025844;28;20033;-74
2021/04/05 00:50:53;;;;;;;0.53;0.50;;;;;;;3.45;95.95;100330.47;5032428;28;20021;-73
2021/04/05 00:53:24;;;;;;;1.33;0.77;;;;;;;3.96;95.11;100397.47;5026755;28;20044;-75
2021/04/05 00:55:50;;;;;;;0.57;0.57;;;;;;;3.79;95.36;100390.38;5027588;28;20029;-73
2021/04/05 00:58:16;;;;;;;0.53;0.53;;;;;;;3.83;94.91;100397.47;5031581;28;20080;-75
2021/04/05 01:00:44;;;;;;;0.50;0.50;;;;;;;3.87;95.04;100396.88;5032911;28;20036;-72
2021/04/05 01:03:16;;;;;;;0.87;0.60;;;;;;;3.84;95.07;100394.16;5032689;28;20041;-74
2021/04/05 01:05:42;;;;;;;0.60;0.53;;;;;;;3.71;95.10;100378.06;5034069;28;20083;-73
2021/04/05 01:08:14;;;;;;;0.70;0.43;;;;;;;3.53;95.34;100384.53;5030395;28;20049;-75
2021/04/05 01:10:39;;;;;;;1.23;0.70;;;;;;;3.46;95.38;100336.44;5032480;28;20056;-74
2021/04/05 01:13:06;;;;;;;7.50;2.33;;;;;;;3.75;95.71;100385.88;5033448;28;20030;-77
2021/04/05 01:15:32;;;;;;;0.73;0.50;;;;;;;3.89;95.21;100387.66;5032369;28;20415;-74
2021/04/05 01:17:57;;;;;;;0.60;0.50;;;;;;;3.88;94.24;100396.09;5028701;28;20026;-75
2021/04/05 01:20:24;;;;;;;0.67;0.47;;;;;;;3.67;95.30;100396.50;5030163;28;20034;-74
2021/04/05 01:22:52;;;;;;;0.60;0.60;;;;;;;3.79;95.72;100375.97;5021297;28;20503;-77
2021/04/05 01:25:19;;;;;;;1.03;0.60;;;;;;;3.83;95.34;100384.72;5015586;28;20550;-73
2021/04/05 01:27:45;;;;;;;0.60;0.50;;;;;;;3.88;94.41;100385.88;5018588;28;20491;-74
2021/04/05 01:30:37;;;;;;;1.50;0.80;;;;;;;3.65;95.11;100397.19;5013884;28;20416;-75
2021/04/05 01:33:06;;;;;;;0.80;0.70;;;;;;;3.47;96.86;100396.91;5014038;28;20140;-77
2021/04/05 01:35:36;;;;;;;0.45;0.45;;;;;;;3.50;97.13;100402.19;5017161;28;20033;-74
2021/04/05 01:38:03;;;;;;;0.67;0.67;;;;;;;3.19;97.29;100354.28;5021756;28;20030;-75
2021/04/05 01:40:29;;;;;;;0.87;0.50;;;;;;;3.65;97.66;100397.19;5014401;28;20044;-76
2021/04/05 01:42:54;;;;;;;0.47;0.47;;;;;;;3.64;96.36;100395.41;5027838;28;20121;-75
2021/04/05 01:45:20;;;;;;;0.93;0.60;;;;;;;3.67;96.86;100386.28;5013552;28;20108;-74
2021/04/05 01:47:45;;;;;;;0.43;0.43;;;;;;;3.61;95.76;100378.22;5012292;28;20476;-73
2021/04/05 01:50:12;;;;;;;1.50;0.80;;;;;;;3.68;95.81;100402.50;5012935;28;20539;-74
2021/04/05 01:52:42;;;;;;;0.70;0.60;;;;;;;3.67;96.30;100399.06;5012553;28;20112;-74
2021/04/05 01:55:08;;;;;;;1.35;0.80;;;;;;;3.60;95.64;100379.06;5015971;28;20428;-74
2021/04/05 01:57:35;;;;;;;0.60;0.60;;;;;;;3.61;94.43;100390.13;5016239;28;20105;-72
2021/04/05 02:00:00;;;;;;;0.77;0.70;;;;;;;3.43;95.54;100375.41;5014454;28;20080;-73
2021/04/05 02:02:27;;;;;;;0.73;0.73;;;;;;;3.45;94.92;100367.84;5029333;28;20022;-74
2021/04/05 02:04:55;;;;;;;0.90;0.90;;;;;;;3.47;95.12;100379.03;5012604;28;20037;-73
2021/04/05 02:07:21;;;;;;;1.10;0.83;;;;;;;3.50;94.96;100353.69;5014660;28;20053;-72
2021/04/05 02:09:46;;;;;;;1.00;0.90;;;;;;;3.66;94.24;100389.63;5021608;28;20500;-74
2021/04/05 02:12:12;;;;;;;1.10;1.00;;;;;;;3.33;93.92;100348.41;5027694;28;20040;-77
2021/04/05 02:14:38;;;;;;;1.40;1.00;;;;;;;3.50;94.75;100374.13;5031502;28;20095;-73
2021/04/05 02:17:04;;;;;;;1.10;1.00;;;;;;;3.82;94.61;100393.16;5030536;28;20044;-74
2021/04/05 02:19:29;;;;;;;2.53;1.20;;;;;;;3.89;93.75;100380.00;5032201;28;20026;-74
2021/04/05 02:21:55;;;;;;;1.30;1.10;;;;;;;3.95;92.50;100385.47;5032971;28;20025;-73
2021/04/05 02:24:21;;;;;;;1.90;1.70;;;;;;;3.86;92.82;100390.91;5031027;28;20037;-74
2021/04/05 02:26:47;;;;;;;1.87;1.40;;;;;;;3.77;93.25;100387.75;5032571;28;20033;-75
2021/04/05 02:29:19;;;;;;;1.73;1.40;;;;;;;3.94;93.28;100401.59;5032896;28;20052;-74
2021/04/05 02:31:45;;;;;;;1.90;1.53;;;;;;;3.97;92.84;100400.88;5032592;28;20037;-72
2021/04/05 02:34:14;;;;;;;3.23;2.10;;;;;;;3.67;92.59;100342.88;5032963;28;20037;-74
2021/04/05 02:36:40;;;;;;;6.68;4.40;;;;;;;4.12;92.21;100394.16;5032318;28;20045;-74
2021/04/05 02:39:09;;;;;;;6.20;4.57;;;;;;;4.15;91.56;100409.69;5032396;28;20033;-74
2021/04/05 02:41:37;;;;;;;5.60;3.40;;;;;;;3.95;91.56;100398.25;5032447;28;20025;-74
2021/04/05 02:44:03;;;;;;;5.70;3.23;;;;;;;3.88;92.17;100408.88;5031274;28;20029;-74
2021/04/05 02:46:34;;;;;;;2.60;1.80;;;;;;;3.63;91.93;100376.69;5032386;28;20033;-74
2021/04/05 02:49:03;;;;;;;2.03;1.70;;;;;;;3.66;92.74;100402.38;5032404;28;20029;-74
2021/04/05 02:51:29;;;;;;;3.08;1.65;;;;;;;3.56;92.42;100403.50;5032155;28;20037;-74
2021/04/05 02:54:02;;;;;;;2.40;1.77;;;;;;;3.49;93.32;100405.53;5032423;28;20500;-74
2021/04/05 02:56:29;;;;;;;2.23;1.60;;;;;;;3.49;93.43;100420.84;5032069;28;20026;-74
2021/04/05 02:58:56;;;;;;;2.80;1.70;;;;;;;3.40;93.51;100426.25;5032026;28;20027;-74
2021/04/05 03:01:23;;;;;;;2.10;1.80;;;;;;;3.24;94.23;100422.69;5031827;28;20025;-74
2021/04/05 03:03:49;;;;;;;3.13;2.00;;;;;;;3.24;94.16;100421.84;5031912;28;20500;-74
2021/04/05 03:06:20;;;;;;;2.63;1.87;;;;;;;3.28;94.43;100440.75;5032138;28;20057;-74
2021/04/05 03:08:46;;;;;;;2.90;1.90;;;;;;;3.23;94.91;100431.13;5032184;28;20049;-75
2021/04/05 03:11:18;;;;;;;3.17;2.00;;;;;;;3.30;94.63;100434.09;5030773;28;20029;-74
2021/04/05 03:13:44;;;;;;;3.00;2.10;;;;;;;3.42;94.60;100445.09;5031743;28;20381;-74
2021/04/05 03:16:14;;;;;;;2.87;1.87;;;;;;;3.49;94.23;100436.16;5029143;28;20041;-74
2021/04/05 03:18:41;;;;;;;3.30;1.90;;;;;;;3.23;93.27;100364.78;5029278;28;20045;-73
2021/04/05 03:21:08;;;;;;;2.17;1.70;;;;;;;3.74;92.47;100436.09;5029289;28;20474;-74
2021/04/05 03:23:34;;;;;;;2.70;1.83;;;;;;;3.09;92.39;100347.75;5029264;28;20487;-74
2021/04/05 03:26:00;;;;;;;17.53;6.57;;;;;;;3.79;92.98;100447.47;5029358;28;20063;-76
2021/04/05 03:28:26;;;;;;;5.27;2.73;;;;;;;3.93;91.90;100445.78;5029551;28;20061;-73
2021/04/05 03:31:02;;;;;;;6.10;3.00;;;;;;;4.04;91.26;100461.81;5029223;28;20510;-73
2021/04/05 03:33:32;;;;;;;2.97;2.00;;;;;;;3.66;90.74;100389.63;5012764;28;20036;-73
2021/04/05 03:36:23;;;;;;;2.27;1.67;;;;;;;3.96;90.57;100447.66;5029112;28;20041;-74
2021/04/05 03:38:49;;;;;;;3.17;1.93;;;;;;;3.92;90.67;100454.22;4970350;28;20541;-74
2021/04/05 03:41:23;;;;;;;2.73;1.83;;;;;;;3.94;90.56;100442.44;4970252;28;20035;-76
2021/04/05 03:43:58;;;;;;;3.03;1.97;;;;;;;4.10;90.14;100449.41;4966690;28;20058;-74
2021/04/05 03:46:29;;;;;;;2.83;1.87;;;;;;;3.69;90.27;100384.72;4963598;28;20103;-74
2021/04/05 03:49:31;;;;;;;3.13;1.90;;;;;;;4.14;89.81;100450.50;4977477;28;20042;-74
2021/04/05 03:52:12;;;;;;;2.80;1.90;;;;;;;4.32;89.70;100456.72;4989936;28;20042;-74
2021/04/05 03:54:48;;;;;;;2.90;2.03;;;;;;;4.40;89.68;100441.88;4987541;28;20038;-74
2021/04/05 03:57:18;;;;;;;3.77;2.10;;;;;;;4.55;88.71;100444.47;4989868;28;20042;-74
2021/04/05 03:59:47;;;;;;;2.47;1.70;;;;;;;4.41;87.47;100394.19;4973004;28;20086;-74
2021/04/05 04:02:19;;;;;;;2.38;1.85;;;;;;;4.76;87.22;100444.91;4970320;28;20168;-74
2021/04/05 04:05:01;;;;;;;1.85;1.60;;;;;;;3.70;88.37;100349.84;4969703;28;20101;-75
2021/04/05 04:07:42;;;;;;;2.20;1.67;;;;;;;4.36;89.37;100439.91;4970119;28;20041;-74
2021/04/05 04:10:11;;;;;;;3.20;2.40;;;;;;;4.36;89.59;100452.69;4969869;28;20137;-75
2021/04/05 04:12:39;;;;;;;3.20;2.20;;;;;;;4.16;90.33;100431.00;4953800;28;20193;-74
2021/04/05 04:15:07;;;;;;;5.37;2.40;;;;;;;3.84;90.16;100392.47;4982275;28;20507;-74
2021/04/05 04:17:36;;;;;;;4.17;2.17;;;;;;;3.70;91.40;100381.38;5029138;28;20057;-75
2021/04/05 04:20:08;;;;;;;4.10;2.00;;;;;;;3.97;91.06;100429.00;5028592;28;20037;-74
2021/04/05 04:22:34;;;;;;;3.73;2.23;;;;;;;4.30;90.75;100459.97;5028527;28;20103;-73
2021/04/05 04:25:00;;;;;;;8.33;5.67;;;;;;;4.43;90.48;100453.97;5028278;28;20127;-75
2021/04/05 04:27:25;;;;;;;12.27;8.13;;;;;;;4.59;90.02;100450.66;5028390;28;20037;-74
2021/04/05 04:29:55;;;;;;;7.15;5.05;;;;;;;4.83;89.29;100469.16;5028485;28;20037;-74
2021/04/05 04:32:25;;;;;;;4.05;2.85;;;;;;;4.65;88.54;100431.44;5028542;28;20672;-74
2021/04/05 04:34:50;;;;;;;4.28;2.70;;;;;;;4.81;87.99;100460.50;5028819;28;20033;-75
2021/04/05 04:37:16;;;;;;;2.58;1.90;;;;;;;4.65;88.29;100466.38;5029321;28;20038;-74
2021/04/05 04:39:43;;;;;;;5.32;3.50;;;;;;;4.58;88.68;100434.44;5030997;28;20070;-75
2021/04/05 04:42:09;;;;;;;5.60;3.38;;;;;;;4.92;88.41;100472.28;5030636;28;20021;-74
2021/04/05 04:44:34;;;;;;;4.45;3.28;;;;;;;4.88;87.70;100470.31;5030405;28;20506;-74
2021/04/05 04:47:00;;;;;;;5.03;3.40;;;;;;;4.99;87.63;100465.84;5030438;28;20025;-74
2021/04/05 04:49:27;;;;;;;3.67;2.70;;;;;;;5.04;87.49;100471.22;5029603;28;20526;-74
2021/04/05 04:51:52;;;;;;;5.07;2.53;;;;;;;5.01;86.90;100462.56;5027903;28;20478;-74
2021/04/05 04:54:17;;;;;;;4.00;2.50;;;;;;;4.93;86.81;100460.34;5018283;28;20046;-73
2021/04/05 04:56:43;;;;;;;5.22;3.33;;;;;;;4.88;87.37;100465.19;5023645;28;20091;-74
2021/04/05 04:59:10;;;;;;;4.20;2.55;;;;;;;4.88;87.61;100448.97;5030554;28;20163;-74
2021/04/05 05:01:38;;;;;;;3.90;2.33;;;;;;;4.98;87.36;100464.94;5033104;28;20442;-74
2021/04/05 05:04:15;;;;;;;2.65;2.08;;;;;;;5.02;87.73;100474.59;5014337;28;20385;-74
2021/04/05 05:06:42;;;;;;;4.78;3.20;;;;;;;5.07;87.92;100481.63;5012867;28;20096;-74
2021/04/05 05:09:07;;;;;;;3.45;2.30;;;;;;;5.01;86.59;100487.28;5014492;28;20054;-74
2021/04/05 05:11:34;;;;;;;3.15;2.13;;;;;;;4.96;87.67;100481.00;5015843;28;20104;-73
2021/04/05 05:14:00;;;;;;;2.92;2.00;;;;;;;4.97;87.89;100485.31;5033997;28;20029;-74
2021/04/05 05:16:26;;;;;;;2.97;1.95;;;;;;;5.00;87.88;100495.75;5033923;28;20410;-74
2021/04/05 05:18:54;;;;;;;5.35;2.88;;;;;;;4.99;88.61;100476.94;5032593;28;20091;-74
2021/04/05 05:21:26;;;;;;;4.50;2.83;;;;;;;4.66;89.38;100437.44;5033990;28;20041;-73
2021/04/05 05:23:56;;;;;;;5.70;3.47;;;;;;;5.00;89.28;100496.63;5033811;28;20084;-74
2021/04/05 05:26:23;;;;;;;6.88;4.70;;;;;;;5.07;89.91;100487.66;5032536;28;20104;-75
2021/04/05 05:28:53;;;;;;;6.30;3.78;;;;;;;4.77;90.24;100461.09;5033839;28;20025;-74
2021/04/05 05:31:22;;;;;;;6.07;3.75;;;;;;;4.93;90.30;100486.81;5034144;28;20103;-73
2021/04/05 05:33:47;;;;;;;6.35;3.50;;;;;;;4.60;90.91;100489.09;5033837;28;20423;-73
2021/04/05 05:36:16;;;;;;;6.40;3.97;;;;;;;4.65;91.97;100500.50;5033714;28;20022;-74
2021/04/05 05:38:44;;;;;;;7.90;4.93;;;;;;;4.55;91.72;100485.38;5018572;28;20040;-74
2021/04/05 05:41:35;;;;;;;6.60;4.00;;;;;;;4.59;91.76;100499.25;5013841;28;20038;-74
2021/04/05 05:44:42;;;;;;;6.90;4.37;;;;;;;4.61;92.44;100497.66;5011277;28;20416;-74
2021/04/05 05:47:48;;;;;;;6.33;4.27;;;;;;;4.64;92.54;100490.19;4972167;28;20122;-74
2021/04/05 05:50:32;;;;;;;6.03;4.22;;;;;;;4.70;92.32;100486.31;4972253;28;20039;-74
2021/04/05 05:53:19;;;;;;;5.00;2.97;;;;;;;4.79;92.40;100490.22;4972209;28;20134;-74
2021/04/05 05:56:08;;;;;;;5.22;3.30;;;;;;;4.90;93.07;100501.09;4972254;28;20069;-74
2021/04/05 05:58:44;;;;;;;4.43;3.17;;;;;;;4.94;92.19;100495.38;4972154;28;20141;-74
2021/04/05 06:01:28;;;;;;;5.82;3.75;;;;;;;4.98;92.04;100493.06;4956530;28;20397;-77
2021/04/05 06:04:18;;;;;;;11.30;7.05;;;;;;;4.99;91.30;100474.38;4971601;28;20027;-72
2021/04/05 06:06:58;;;;;;;17.50;8.27;;;;;;;5.10;91.14;100509.97;4971941;28;20093;-74
2021/04/05 06:09:34;;;;;;;6.03;4.05;;;;;;;5.14;91.39;100517.03;4971778;28;20082;-74
2021/04/05 06:12:11;;;;;;;6.50;4.30;;;;;;;5.13;91.34;100508.47;4954769;28;20043;-74
2021/04/05 06:14:52;;;;;;;8.50;5.80;;;;;;;5.36;91.37;100521.75;4971780;28;20070;-74
2021/04/05 06:17:37;;;;;;;9.65;6.43;;;;;;;5.44;90.71;100529.88;4955492;28;20047;-74
2021/04/05 06:20:12;;;;;;;8.38;5.13;;;;;;;5.47;89.61;100533.50;4948968;29;20043;-74
2021/04/05 06:22:58;;;;;;;9.48;5.50;;;;;;;5.53;89.53;100545.75;4914104;29;20043;-74
2021/04/05 06:25:30;;;;;;;10.52;7.65;;;;;;;5.53;90.03;100550.03;4914253;29;20495;-74
2021/04/05 06:28:16;;;;;;;8.43;6.47;;;;;;;5.22;89.53;100490.22;4928441;29;20046;-74
2021/04/05 06:31:25;;;;;;;10.05;7.18;;;;;;;5.64;89.61;100543.84;4933200;29;20167;-74
2021/04/05 06:33:53;;;;;;;7.93;6.00;;;;;;;5.66;88.86;100545.69;4914022;29;20044;-74
2021/04/05 06:37:09;;;;;;;8.05;5.70;;;;;;;5.73;89.19;100548.59;4898059;29;20044;-74
2021/04/05 06:39:41;;;;;;;6.85;5.00;;;;;;;5.76;88.76;100549.66;4913744;29;20590;-74
2021/04/05 06:42:28;;;;;;;8.90;7.25;;;;;;;5.81;88.89;100550.81;4913727;29;20535;-74
2021/04/05 06:45:27;;;;;;;12.50;9.63;;;;;;;5.91;88.32;100552.22;4913812;29;20487;-74
2021/04/05 06:48:33;;;;;;;7.45;4.68;;;;;;;5.96;88.24;100548.25;4913846;29;20036;-74
2021/04/05 06:51:46;;;;;;;5.22;3.30;;;;;;;6.01;88.40;100542.50;4913235;29;20518;-74
2021/04/05 06:54:24;;;;;;;8.93;6.60;;;;;;;6.14;88.07;100545.88;4895013;29;20152;-74
2021/04/05 06:57:12;;;;;;;7.97;6.35;;;;;;;6.08;88.35;100558.34;4888042;29;20040;-74
2021/04/05 07:00:01;;;;;;;7.05;4.68;;;;;;;5.65;87.91;100453.41;4876304;29;20037;-74
2021/04/05 07:03:05;;;;;;;6.28;4.32;;;;;;;6.43;88.68;100561.09;4876273;29;20048;-74
2021/04/05 07:05:40;;;;;;;5.32;3.88;;;;;;;6.71;88.25;100565.19;4876577;29;20059;-74
2021/04/05 07:08:30;;;;;;;6.03;3.90;;;;;;;6.78;87.71;100544.19;4876003;29;20037;-74
2021/04/05 07:11:07;;;;;;;;;;;;;;;6.82;87.18;100558.94;4901689;29;20541;-75
2021/04/05 07:13:47;;;;;;;6.90;3.80;;;;;;;6.84;86.57;100561.59;4926379;29;19922;-74
2021/04/05 07:16:43;;;;;;;5.60;3.65;;;;;;;6.79;87.01;100558.75;4964947;28;20054;-74
2021/04/05 07:19:16;;;;;;;3.88;2.78;;;;;;;6.89;85.81;100563.59;4965291;28;20107;-74
2021/04/05 07:22:06;;;;;;;3.70;2.40;;;;;;;6.66;85.85;100541.84;4970779;28;20042;-73
2021/04/05 07:24:38;;;;;;;4.50;3.00;;;;;;;6.73;88.96;100563.56;4970357;28;20045;-74
2021/04/05 07:27:13;;;;;;;4.85;2.50;;;;;;;6.67;85.22;100564.13;4972415;28;20034;-74
2021/04/05 07:29:48;;;;;;;4.53;2.85;;;;;;;6.84;85.42;100569.28;5031562;28;20029;-75
2021/04/05 07:32:38;;;;;;;2.83;1.92;;;;;;;7.00;83.65;100576.13;5031225;28;20032;-74
2021/04/05 07:36:00;;;;;;;7.03;2.85;;;;;;;7.07;82.76;100583.34;5030141;28;20112;-74
2021/04/05 07:38:44;;;;;;;2.97;1.80;;;;;;;6.88;80.96;100582.38;4973552;28;20054;-74
2021/04/05 07:41:20;;;;;;;3.08;1.85;;;;;;;6.61;82.04;100530.44;4989943;28;20042;-74
2021/04/05 07:44:22;;;;;;;3.90;2.58;;;;;;;6.92;81.75;100594.56;4989638;28;20052;-74
2021/04/05 07:47:17;;;;;;;3.47;2.20;;;;;;;6.77;81.21;100578.34;4975350;28;20042;-73
2021/04/05 07:49:57;;;;;;;4.25;2.67;;;;;;;6.76;83.54;100574.00;4950898;29;20099;-74
2021/04/05 07:52:48;;;;;;;6.45;3.58;;;;;;;6.95;83.98;100584.47;4951073;29;20035;-74
2021/04/05 07:55:15;;;;;;;4.03;2.60;;;;;;;6.94;82.18;100589.50;4935190;29;20038;-76
2021/04/05 07:57:49;;;;;;;4.53;3.03;;;;;;;6.98;83.67;100588.88;4934759;29;20046;-73
2021/04/05 08:00:29;;;;;;;4.22;2.90;;;;;;;7.20;82.62;100584.88;4950879;28;20046;-75
2021/04/05 08:03:04;;;;;;;4.60;3.00;;;;;;;7.49;82.96;100585.47;4950691;29;20043;-74
2021/04/05 08:05:51;;;;;;;3.53;2.58;;;;;;;7.67;80.46;100598.41;4950835;28;20478;-73
2021/04/05 08:08:41;;;;;;;3.90;2.67;;;;;;;7.55;81.11;100607.25;4960176;28;20050;-73
2021/04/05 08:11:29;;;;;;;5.63;3.97;;;;;;;7.73;80.77;100597.00;4989158;28;20104;-74
2021/04/05 08:14:12;;;;;;;3.80;2.42;;;;;;;7.68;79.12;100605.31;5005211;28;20049;-74
2021/04/05 08:17:05;;;;;;;4.35;2.97;;;;;;;7.17;80.46;100559.91;4989362;28;20038;-75
2021/04/05 08:20:02;;;;;;;4.20;2.80;;;;;;;7.35;78.49;100615.59;4989261;28;20512;-75
2021/04/05 08:22:47;;;;;;;4.35;2.58;;;;;;;7.51;79.92;100618.16;4972771;28;20054;-73
2021/04/05 08:25:47;;;;;;;5.05;3.47;;;;;;;7.63;79.38;100615.34;4993862;28;20030;-75
2021/04/05 08:28:31;;;;;;;4.78;3.20;;;;;;;7.76;79.34;100611.69;5030799;28;20029;-74
2021/04/05 08:31:16;;;;;;;5.38;2.88;;;;;;;7.68;77.53;100620.72;5029625;28;20026;-75
2021/04/05 08:34:03;;;;;;;2.83;2.00;;;;;;;7.63;75.49;100622.16;5030945;28;20111;-75
2021/04/05 08:36:48;;;;;;;2.90;1.95;;;;;;;7.50;77.13;100625.78;5031981;28;20037;-73
2021/04/05 08:39:41;;;;;;;3.17;2.35;;;;;;;7.35;76.26;100628.44;5025880;28;20022;-74
2021/04/05 08:42:45;;;;;;;3.22;2.20;;;;;;;7.32;75.58;100631.72;5028692;28;20098;-74
2021/04/05 08:45:16;;;;;;;2.20;1.90;;;;;;;7.28;75.49;100633.25;5025546;28;20033;-75
2021/04/05 08:47:47;;;;;;;3.67;2.95;;;;;;;7.41;74.60;100629.66;5023159;28;20087;-75
2021/04/05 08:50:15;;;;;;;3.00;2.30;;;;;;;7.20;75.25;100580.63;5031660;28;20036;-75
2021/04/05 08:52:45;;;;;;;2.13;1.90;;;;;;;7.54;73.71;100615.75;5024389;28;20049;-75
2021/04/05 08:55:15;;;;;;;2.45;1.75;;;;;;;7.32;73.33;100566.66;5026973;28;20018;-76
2021/04/05 08:57:54;;;;;;;3.22;1.90;;;;;;;7.66;72.77;100614.63;5019420;28;20573;-74
2021/04/05 09:00:22;;;;;;;2.83;1.83;;;;;;;7.15;72.16;100519.56;5018272;28;20048;-73
2021/04/05 09:03:12;;;;;;;3.60;2.22;;;;;;;7.75;71.54;100621.09;5016947;28;20172;-73
2021/04/05 09:05:43;;;;;;;;;;;;;;;7.75;71.95;100627.91;5017340;28;20511;-74
2021/04/05 09:08:14;;;;;;;2.45;1.85;;;;;;;7.74;68.65;100632.19;5011327;28;20462;-76
2021/04/05 09:10:48;;;;;;;2.38;1.95;;;;;;;7.70;72.61;100630.28;5011218;28;20069;-74
2021/04/05 09:13:21;;;;;;;3.17;2.20;;;;;;;7.64;73.24;100629.06;5017655;28;20412;-74
2021/04/05 09:16:13;;;;;;;3.33;2.00;;;;;;;7.63;73.26;100632.44;5012159;28;20026;-74
2021/04/05 09:19:02;;;;;;;3.45;2.35;;;;;;;7.66;70.00;100627.47;5011037;28;20492;-73
2021/04/05 09:21:48;;;;;;;5.30;3.43;;;;;;;7.74;71.94;100624.47;4971948;28;20039;-72
2021/04/05 09:24:52;;;;;;;9.32;3.30;;;;;;;7.85;72.90;100619.00;4971650;28;20066;-75
2021/04/05 09:27:36;;;;;;;3.28;1.70;;;;;;;7.86;71.05;100621.66;4982486;28;20050;-74
2021/04/05 09:30:42;;;;;;;4.38;1.90;;;;;;;7.88;72.15;100614.03;4990582;28;20086;-73
2021/04/05 09:33:29;;;;;;;2.92;1.58;;;;;;;7.86;72.10;100618.19;4990408;28;20072;-76
2021/04/05 09:35:54;;;;;;;3.38;2.40;;;;;;;7.99;72.87;100612.88;4991114;28;20034;-73
2021/04/05 09:38:26;;;;;;;3.22;1.88;;;;;;;7.82;72.29;100585.44;4990928;28;20038;-73
2021/04/05 09:41:22;;;;;;;4.32;2.70;;;;;;;7.97;73.41;100611.03;4991020;28;20084;-72
2021/04/05 09:43:47;;;;;;;3.60;2.40;;;;;;;7.86;72.38;100608.81;4916975;28;20050;-74
2021/04/05 09:47:08;;;;;;;4.80;3.10;;;;;;;7.93;76.02;100608.28;4895537;29;20040;-74
2021/04/05 09:50:09;;;;;;;7.15;4.20;;;;;;;7.94;77.17;100610.06;4857123;29;20049;-73
2021/04/05 09:53:05;;;;;;;8.73;4.90;;;;;;;8.02;78.28;100607.84;4815851;29;20045;-74
2021/04/05 09:55:36;;;;;;;5.43;3.53;;;;;;;7.74;77.57;100555.09;4812881;29;20122;-77
2021/04/05 09:58:06;;;;;;;5.60;3.30;;;;;;;8.05;78.29;100612.25;4817625;29;20042;-74
2021/04/05 10:00:33;;;;;;;5.63;3.70;;;;;;;7.53;76.89;100547.19;4815570;29;20043;-74
2021/04/05 10:03:03;;;;;;;5.07;3.50;;;;;;;7.59;77.81;100585.16;4803253;29;20083;-74
2021/04/05 10:05:28;;;;;;;;;;;;;;;7.66;77.27;100607.78;4838665;29;22224;-74
2021/04/05 10:07:56;;;;;;;6.68;3.75;;;;;;;7.61;77.61;100606.66;4851035;29;19947;-74
2021/04/05 10:10:24;;;;;;;8.00;4.20;;;;;;;7.71;77.43;100614.06;4844917;29;20045;-77
2021/04/05 10:12:52;;;;;;;6.22;3.92;;;;;;;7.84;77.34;100609.50;4826922;29;20573;-74
2021/04/05 10:15:21;;;;;;;5.13;3.60;;;;;;;7.83;76.84;100595.78;4846466;29;20040;-74
2021/04/05 10:18:00;;;;;;;5.93;3.72;;;;;;;7.78;76.05;100602.41;4863175;29;20725;-74
2021/04/05 10:20:30;;;;;;;4.97;3.53;;;;;;;7.66;77.50;100592.34;4866881;29;20045;-75
2021/04/05 10:22:58;;;;;;;5.88;4.40;;;;;;;7.85;77.32;100603.56;4852547;29;20067;-75
2021/04/05 10:25:25;;;;;;;5.07;3.53;;;;;;;7.80;75.20;100599.88;4883088;28;20476;-76
2021/04/05 10:27:59;;;;;;;6.47;4.00;;;;;;;7.73;76.04;100602.16;4975508;28;20500;-75
2021/04/05 10:30:32;;;;;;;6.88;3.42;;;;;;;7.69;75.20;100586.50;5015992;28;20676;-73
2021/04/05 10:33:08;;;;;;;5.28;3.25;;;;;;;7.75;73.33;100595.41;5014552;28;20478;-77
2021/04/05 10:35:37;;;;;;;4.88;3.25;;;;;;;7.65;75.24;100538.34;5012038;28;20032;-75
2021/04/05 10:38:04;;;;;;;4.93;3.17;;;;;;;7.81;74.21;100558.84;5017159;28;20112;-78
2021/04/05 10:40:30;;;;;;;6.40;3.92;;;;;;;8.11;74.25;100594.56;5032157;28;20040;-74
2021/04/05 10:43:03;;;;;;;6.47;4.30;;;;;;;8.24;72.98;100583.22;5022885;28;20404;-74
2021/04/05 10:45:32;;;;;;;6.47;4.38;;;;;;;8.29;72.26;100579.16;5017099;28;20510;-74
2021/04/05 10:48:06;;;;;;;5.17;3.50;;;;;;;8.38;72.99;100571.00;5016777;28;20037;-74
2021/04/05 10:50:45;;;;;;;6.78;4.57;;;;;;;8.54;72.75;100578.66;5016127;28;20261;-73
2021/04/05 10:53:14;;;;;;;6.45;5.10;;;;;;;8.61;71.63;100558.34;5010609;28;20030;-73
2021/04/05 10:55:46;;;;;;;6.32;3.60;;;;;;;8.72;71.31;100572.59;5011004;28;20037;-76
2021/04/05 10:58:18;;;;;;;2.83;2.05;;;;;;;8.60;67.75;100559.16;5013032;28;20037;-77
2021/04/05 11:00:52;;;;;;;6.38;3.92;;;;;;;8.48;67.53;100508.91;5012392;28;20111;-75
2021/04/05 11:03:22;;;;;;;5.63;3.10;;;;;;;9.00;70.34;100561.88;5012179;28;20030;-76
2021/04/05 11:05:53;;;;;;;60.85;20.08;;;;;;;9.15;69.07;100553.06;5020924;28;20057;-76
2021/04/05 11:08:23;;;;;;;4.53;3.03;;;;;;;9.23;64.42;100542.28;5020974;28;20046;-75
2021/04/05 11:10:51;;;;;;;3.70;2.30;;;;;;;9.29;63.95;100541.66;5011292;28;20049;-77
2021/04/05 11:13:18;;;;;;;4.53;2.53;;;;;;;9.54;65.64;100533.31;5010100;28;20048;-76
2021/04/05 11:15:46;;;;;;;11.88;4.50;;;;;;;10.01;64.68;100504.22;5012394;28;20029;-76
2021/04/05 11:18:14;;;;;;;3.40;2.38;;;;;;;10.72;61.82;100519.88;5011322;28;20057;-74
2021/04/05 11:20:42;;;;;;;2.92;2.10;;;;;;;10.88;65.88;100520.41;5010197;28;20482;-76
2021/04/05 11:23:12;;;;;;;6.90;3.08;;;;;;;11.02;61.17;100528.69;5010227;28;20029;-78
2021/04/05 11:25:40;;;;;;;;;;;;;;;10.83;62.26;100531.47;5012279;28;20040;-76
2021/04/05 11:28:25;;;;;;;21.77;8.88;;;;;;;11.16;60.44;100530.94;5012013;28;19917;-76
2021/04/05 11:30:58;;;;;;;4.35;2.55;;;;;;;11.43;56.33;100529.28;5010945;28;20030;-74
2021/04/05 11:33:27;;;;;;;3.47;2.60;;;;;;;11.33;58.14;100509.97;5011106;28;20025;-74
2021/04/05 11:35:54;;;;;;;4.07;2.50;;;;;;;11.06;57.81;100523.66;5010408;28;20030;-74
2021/04/05 11:38:21;;;;;;;4.32;2.50;;;;;;;10.95;59.19;100520.72;5024324;28;20076;-75
2021/04/05 11:40:49;;;;;;;3.80;2.42;;;;;;;11.24;56.15;100509.63;5009656;28;20389;-72
2021/04/05 11:43:18;;;;;;;3.08;2.22;;;;;;;11.41;56.12;100507.66;5014290;28;20061;-73
2021/04/05 11:45:49;;;;;;;4.65;2.45;;;;;;;11.55;57.69;100487.44;5011454;28;20555;-74
2021/04/05 11:48:20;;;;;;;3.60;2.35;;;;;;;11.65;56.69;100484.31;5012308;28;20061;-74
2021/04/05 11:50:46;;;;;;;4.75;2.42;;;;;;;11.76;57.65;100482.97;5010604;28;20026;-77
2021/04/05 11:53:39;;;;;;;3.72;2.72;;;;;;;11.67;59.51;100494.72;5010666;28;20063;-73
2021/04/05 11:56:22;;;;;;;4.18;2.55;;;;;;;11.54;58.72;100477.91;5022085;28;20054;-77
2021/04/05 11:58:57;;;;;;;3.67;2.90;;;;;;;11.98;57.95;100483.69;5010015;28;20021;-76
2021/04/05 12:01:25;;;;;;;4.25;2.47;;;;;;;12.20;54.66;100468.81;5011835;28;20706;-74
2021/04/05 12:04:02;;;;;;;3.78;2.60;;;;;;;12.21;56.36;100455.03;5026063;28;20021;-74
2021/04/05 12:06:43;;;;;;;3.47;2.50;;;;;;;12.16;57.39;100459.19;5011245;28;20045;-78
2021/04/05 12:09:41;;;;;;;3.25;2.63;;;;;;;12.25;53.09;100415.47;5028139;28;20037;-76